Time;durP1;ratioP1;P1;durP2;ratioP2;P2;SDS_P1;SDS_P2;PMS_P1;PMS_P2;Temp;Humidity;BMP_temperature;BMP_pressure;BME280_temperature;BME280_humidity;BME280_pressure;Samples;Min_cycle;Max_cycle;Signal;HPM_P1;HPM_P2
2022/09/06 00:01:53;;;;;;;10.23;2.63;;;19.00;99.90;;;;;;6245083;28;20052;-79
2022/09/06 00:04:56;;;;;;;5.10;2.15;;;18.90;99.90;;;;;;6245342;28;20045;-79
2022/09/06 00:07:59;;;;;;;7.32;2.30;;;18.80;99.90;;;;;;6244485;28;20056;-79
2022/09/06 00:11:00;;;;;;;6.22;1.95;;;18.80;99.90;;;;;;6244442;28;20045;-78
2022/09/06 00:14:02;;;;;;;8.13;2.40;;;18.80;99.90;;;;;;6244833;28;20419;-79
2022/09/06 00:17:04;;;;;;;4.60;1.98;;;18.80;99.90;;;;;;6235385;28;20046;-79
2022/09/06 00:20:09;;;;;;;8.75;2.95;;;18.80;99.90;;;;;;6220120;28;20048;-79
2022/09/06 00:23:10;;;;;;;7.32;2.17;;;18.70;99.90;;;;;;6230820;28;20059;-78
2022/09/06 00:26:12;;;;;;;2.97;1.98;;;18.70;99.90;;;;;;6244738;28;20053;-79
2022/09/06 00:29:14;;;;;;;8.05;2.40;;;18.70;99.90;;;;;;6245273;28;20057;-79
2022/09/06 00:32:16;;;;;;;4.50;2.03;;;18.70;99.90;;;;;;6245276;28;20045;-78
2022/09/06 00:35:20;;;;;;;4.40;2.50;;;18.70;99.90;;;;;;6245675;28;20414;-80
2022/09/06 00:38:22;;;;;;;4.70;2.20;;;18.80;99.90;;;;;;6245062;28;20046;-78
2022/09/06 00:41:24;;;;;;;11.80;2.38;;;18.80;99.90;;;;;;6226826;28;20046;-78
2022/09/06 00:44:26;;;;;;;5.38;2.25;;;18.80;99.90;;;;;;6220556;28;20050;-78
2022/09/06 00:47:28;;;;;;;3.22;2.08;;;18.80;99.90;;;;;;6220358;28;20042;-78
2022/09/06 00:50:32;;;;;;;4.05;2.28;;;18.90;99.90;;;;;;6240112;28;20033;-80
2022/09/06 00:53:34;;;;;;;8.30;2.38;;;18.90;99.90;;;;;;6250746;28;20049;-80
2022/09/06 00:56:43;;;;;;;11.32;2.47;;;18.90;99.90;;;;;;6254309;28;20445;-79
2022/09/06 00:59:46;;;;;;;5.55;2.25;;;19.00;99.90;;;;;;6253659;28;20047;-79
2022/09/06 01:02:49;;;;;;;2.40;1.90;;;19.10;99.90;;;;;;6229932;28;20669;-79
2022/09/06 01:06:11;;;;;;;10.23;2.35;;;19.10;99.90;;;;;;6230695;28;20049;-78
2022/09/06 01:09:26;;;;;;;7.32;2.53;;;19.20;99.90;;;;;;6230195;28;20053;-80
2022/09/06 01:12:41;;;;;;;4.20;2.45;;;19.30;99.90;;;;;;6250332;28;20053;-79
2022/09/06 01:15:52;;;;;;;5.35;3.10;;;19.40;99.90;;;;;;6254784;28;20116;-79
2022/09/06 01:19:34;;;;;;;5.68;2.42;;;19.60;99.90;;;;;;6253864;28;20046;-79
2022/09/06 01:22:59;;;;;;;9.40;2.20;;;19.80;99.90;;;;;;6254353;28;20041;-79
2022/09/06 01:26:14;;;;;;;9.23;2.38;;;20.00;99.90;;;;;;6254455;28;20049;-80
2022/09/06 01:29:26;;;;;;;7.20;2.20;;;20.20;99.90;;;;;;6255076;28;20506;-79
2022/09/06 01:32:33;;;;;;;17.63;3.67;;;20.30;99.90;;;;;;6253644;28;20124;-80
2022/09/06 01:35:40;;;;;;;11.50;2.83;;;20.30;99.90;;;;;;6255532;28;20047;-80
2022/09/06 01:38:42;;;;;;;5.03;2.92;;;20.30;99.90;;;;;;6250121;28;20048;-78
2022/09/06 01:41:44;;;;;;;4.55;3.28;;;20.10;99.90;;;;;;6249648;28;20049;-78
2022/09/06 01:44:52;;;;;;;5.05;3.65;;;20.10;99.90;;;;;;6248916;28;20418;-78
2022/09/06 01:48:06;;;;;;;6.95;3.42;;;19.80;99.90;;;;;;6248951;28;20530;-78
2022/09/06 01:51:17;;;;;;;8.25;3.53;;;19.70;99.90;;;;;;6248819;28;20430;-78
2022/09/06 01:54:37;;;;;;;17.75;4.68;;;19.60;99.90;;;;;;6284850;22;20056;-80
2022/09/06 01:58:00;;;;;;;11.70;3.97;;;19.50;99.90;;;;;;6280228;28;20053;-81
2022/09/06 02:01:06;;;;;;;10.48;3.55;;;19.40;99.90;;;;;;6279930;28;20049;-81
2022/09/06 02:04:18;;;;;;;12.57;4.28;;;19.40;99.90;;;;;;6293261;28;20105;-78
2022/09/06 02:07:23;;;;;;;11.52;4.30;;;19.20;99.90;;;;;;6290342;28;20546;-80
2022/09/06 02:10:30;;;;;;;12.82;4.70;;;19.20;99.90;;;;;;6279366;28;20055;-81
2022/09/06 02:13:35;;;;;;;10.17;4.93;;;19.10;99.90;;;;;;6275176;28;20573;-80
2022/09/06 02:16:42;;;;;;;23.08;5.28;;;19.10;99.90;;;;;;6278606;28;20294;-80
2022/09/06 02:19:48;;;;;;;7.45;4.95;;;19.20;99.90;;;;;;6277504;28;20055;-80
2022/09/06 02:22:53;;;;;;;13.50;5.20;;;19.10;99.90;;;;;;6277883;28;20037;-80
2022/09/06 02:25:58;;;;;;;8.32;4.68;;;19.10;99.90;;;;;;6278285;28;20056;-80
2022/09/06 02:29:00;;;;;;;9.52;5.35;;;19.10;99.90;;;;;;6277400;28;20138;-81
2022/09/06 02:32:12;;;;;;;7.93;5.43;;;19.10;99.90;;;;;;6277447;28;20059;-80
2022/09/06 02:35:15;;;;;;;10.57;5.53;;;19.10;99.90;;;;;;6277293;28;20418;-80
2022/09/06 02:38:18;;;;;;;10.52;5.28;;;19.10;99.90;;;;;;6277632;28;20053;-81
2022/09/06 02:41:22;;;;;;;10.68;5.13;;;19.20;99.90;;;;;;6278414;28;20051;-80
2022/09/06 02:44:24;;;;;;;13.13;6.03;;;19.20;99.90;;;;;;6277945;28;20048;-81
2022/09/06 02:47:27;;;;;;;9.77;5.95;;;19.30;99.90;;;;;;6277614;28;20053;-80
2022/09/06 02:50:29;;;;;;;13.00;5.43;;;19.30;99.90;;;;;;6278376;28;20124;-79
2022/09/06 02:53:32;;;;;;;12.52;5.40;;;19.30;99.90;;;;;;6278016;28;20053;-81
2022/09/06 02:56:35;;;;;;;10.00;5.00;;;19.20;99.90;;;;;;6277438;28;20049;-81
2022/09/06 02:59:37;;;;;;;19.23;5.88;;;19.10;99.90;;;;;;6277999;28;20536;-80
2022/09/06 03:02:40;;;;;;;10.55;5.18;;;19.10;99.90;;;;;;6276526;28;20041;-80
2022/09/06 03:05:42;;;;;;;12.35;6.25;;;19.10;99.90;;;;;;6277418;28;20183;-81
2022/09/06 03:08:44;;;;;;;8.20;5.15;;;19.20;99.90;;;;;;6277228;28;20045;-79
2022/09/06 03:11:46;;;;;;;11.00;5.82;;;19.20;99.90;;;;;;6277275;28;20055;-81
2022/09/06 03:14:47;;;;;;;9.88;5.25;;;19.20;99.90;;;;;;6260342;28;20056;-80
2022/09/06 03:17:50;;;;;;;7.22;5.60;;;19.10;99.90;;;;;;6252142;28;20051;-80
2022/09/06 03:20:54;;;;;;;10.68;5.47;;;19.10;99.90;;;;;;6251784;28;20045;-81
2022/09/06 03:23:55;;;;;;;10.10;5.78;;;19.10;99.90;;;;;;6251871;28;20048;-81
2022/09/06 03:26:57;;;;;;;16.90;5.53;;;19.20;99.90;;;;;;6251987;28;20046;-79
2022/09/06 03:29:59;;;;;;;12.68;5.97;;;19.20;99.90;;;;;;6251536;28;20059;-79
2022/09/06 03:33:02;;;;;;;10.73;5.38;;;19.20;99.90;;;;;;6252028;28;20052;-81
2022/09/06 03:36:04;;;;;;;8.93;5.57;;;19.20;99.90;;;;;;6251499;28;20063;-81
2022/09/06 03:39:06;;;;;;;14.10;5.88;;;19.20;99.90;;;;;;6250926;28;20048;-81
2022/09/06 03:42:08;;;;;;;9.70;5.35;;;19.20;99.90;;;;;;6250760;28;20434;-81
2022/09/06 03:45:10;;;;;;;9.90;5.65;;;19.20;99.90;;;;;;6251622;28;20054;-80
2022/09/06 03:48:13;;;;;;;13.25;6.10;;;19.20;99.90;;;;;;6250383;28;20049;-81
2022/09/06 03:51:15;;;;;;;13.20;5.72;;;19.10;99.90;;;;;;6251209;28;20461;-81
2022/09/06 03:54:17;;;;;;;14.07;6.53;;;19.00;99.90;;;;;;6250930;28;20050;-81
2022/09/06 03:57:18;;;;;;;8.75;5.13;;;18.90;99.90;;;;;;6251185;28;20065;-80
2022/09/06 04:00:20;;;;;;;9.02;5.45;;;18.90;99.90;;;;;;6250348;28;20049;-79
2022/09/06 04:03:23;;;;;;;9.07;5.95;;;18.80;99.90;;;;;;6250931;28;20037;-81
2022/09/06 04:06:25;;;;;;;15.00;5.65;;;18.80;99.90;;;;;;6251332;28;20037;-81
2022/09/06 04:09:27;;;;;;;15.98;6.63;;;18.70;99.90;;;;;;6251537;28;20049;-79
2022/09/06 04:12:28;;;;;;;9.80;6.25;;;18.70;99.90;;;;;;6248507;28;20063;-79
2022/09/06 04:15:30;;;;;;;13.60;5.50;;;18.60;99.90;;;;;;6253574;28;20426;-81
2022/09/06 04:18:33;;;;;;;12.40;6.30;;;18.50;99.90;;;;;;6260449;28;20136;-81
2022/09/06 04:21:35;;;;;;;15.68;6.70;;;18.50;99.90;;;;;;6248949;28;20049;-79
2022/09/06 04:24:37;;;;;;;11.50;6.30;;;18.50;99.90;;;;;;6248428;28;20045;-79
2022/09/06 04:27:39;;;;;;;12.27;6.65;;;18.50;99.90;;;;;;6247642;28;20148;-79
2022/09/06 04:30:40;;;;;;;9.70;6.75;;;18.50;99.90;;;;;;6248978;28;20051;-81
2022/09/06 04:33:43;;;;;;;14.13;6.68;;;18.40;99.90;;;;;;6248244;28;20052;-80
2022/09/06 04:36:45;;;;;;;10.05;5.78;;;18.40;99.90;;;;;;6248717;28;20056;-81
2022/09/06 04:39:47;;;;;;;9.50;6.00;;;18.30;99.90;;;;;;6248306;28;20051;-81
2022/09/06 04:42:49;;;;;;;11.80;5.40;;;18.30;99.90;;;;;;6247823;28;20506;-81
2022/09/06 04:45:51;;;;;;;8.70;5.95;;;18.30;99.90;;;;;;6248558;28;20055;-80
2022/09/06 04:48:55;;;;;;;13.35;5.53;;;18.30;99.90;;;;;;6248107;28;20049;-79
2022/09/06 04:51:56;;;;;;;7.75;5.35;;;18.30;99.90;;;;;;6248850;28;20049;-79
2022/09/06 04:54:58;;;;;;;14.07;5.03;;;18.20;99.90;;;;;;6247904;28;20492;-79
2022/09/06 04:58:01;;;;;;;8.07;5.57;;;18.30;99.90;;;;;;6247918;28;20059;-81
2022/09/06 05:01:02;;;;;;;10.25;5.43;;;18.30;99.90;;;;;;6248780;28;20060;-78
2022/09/06 05:04:05;;;;;;;10.73;5.75;;;18.30;99.90;;;;;;6248583;28;20418;-80
2022/09/06 05:07:08;;;;;;;8.35;5.28;;;18.30;99.90;;;;;;6248183;28;20048;-80
2022/09/06 05:10:10;;;;;;;12.70;6.30;;;18.30;99.90;;;;;;6247943;28;20049;-80
2022/09/06 05:13:12;;;;;;;11.05;4.90;;;18.30;99.90;;;;;;6248674;28;20045;-80
2022/09/06 05:16:14;;;;;;;10.02;5.72;;;18.20;99.90;;;;;;6260975;28;20049;-81
2022/09/06 05:19:17;;;;;;;10.40;5.75;;;18.20;99.90;;;;;;6273271;28;20048;-79
2022/09/06 05:22:19;;;;;;;9.45;5.30;;;18.20;99.90;;;;;;6273103;28;20045;-80
2022/09/06 05:25:21;;;;;;;18.73;6.07;;;18.20;99.90;;;;;;6276813;28;20045;-80
2022/09/06 05:28:23;;;;;;;12.10;6.15;;;18.30;99.90;;;;;;6275654;28;20057;-81
2022/09/06 05:31:27;;;;;;;8.52;5.25;;;18.30;99.90;;;;;;6278742;28;20041;-80
2022/09/06 05:34:30;;;;;;;11.07;6.07;;;18.40;99.90;;;;;;6274546;28;20044;-80
2022/09/06 05:37:32;;;;;;;8.43;5.88;;;18.60;99.90;;;;;;6274674;28;20516;-81
2022/09/06 05:40:33;;;;;;;6.80;5.28;;;18.70;99.90;;;;;;6277042;28;20059;-80
2022/09/06 05:43:35;;;;;;;10.00;5.25;;;18.80;99.90;;;;;;6278087;28;20055;-80
2022/09/06 05:46:42;;;;;;;11.40;4.25;;;19.00;99.90;;;;;;6278246;28;20053;-80
2022/09/06 05:49:45;;;;;;;5.88;4.40;;;19.20;99.90;;;;;;6278691;28;20064;-81
2022/09/06 05:52:47;;;;;;;7.63;4.95;;;19.40;99.90;;;;;;6278347;28;20453;-80
2022/09/06 05:55:49;;;;;;;10.65;4.78;;;19.50;99.90;;;;;;6278486;28;20056;-80
2022/09/06 05:58:50;;;;;;;11.80;6.50;;;19.60;99.90;;;;;;6278696;28;20055;-81
2022/09/06 06:01:54;;;;;;;12.82;5.05;;;19.80;99.90;;;;;;6278754;28;20056;-81
2022/09/06 06:04:57;;;;;;;5.40;4.05;;;19.90;99.90;;;;;;6278983;28;20498;-81
2022/09/06 06:07:59;;;;;;;6.93;4.50;;;20.10;99.90;;;;;;6274426;28;20110;-80
2022/09/06 06:11:01;;;;;;;9.02;4.85;;;20.20;99.90;;;;;;6272937;28;20686;-79
2022/09/06 06:14:04;;;;;;;7.38;4.50;;;20.30;99.90;;;;;;6274208;28;20049;-80
2022/09/06 06:17:06;;;;;;;7.10;4.75;;;20.50;99.90;;;;;;6261556;28;20679;-79
2022/09/06 06:20:10;;;;;;;6.97;4.72;;;20.70;99.90;;;;;;6249861;28;20115;-78
2022/09/06 06:23:11;;;;;;;14.63;4.63;;;20.80;99.90;;;;;;6249570;28;20057;-80
2022/09/06 06:26:13;;;;;;;5.85;3.70;;;20.90;99.90;;;;;;6249412;28;20046;-79
2022/09/06 06:29:15;;;;;;;5.70;4.50;;;21.00;99.90;;;;;;6249333;28;20057;-79
2022/09/06 06:32:17;;;;;;;9.13;4.50;;;21.10;99.90;;;;;;6248709;28;20045;-79
2022/09/06 06:35:20;;;;;;;5.68;3.78;;;21.30;99.90;;;;;;6248836;28;20052;-78
2022/09/06 06:38:22;;;;;;;8.48;3.88;;;21.40;99.90;;;;;;6248273;28;20402;-79
2022/09/06 06:41:25;;;;;;;5.95;3.65;;;21.50;99.90;;;;;;6249203;28;20071;-81
2022/09/06 06:44:27;;;;;;;7.03;4.05;;;21.70;99.90;;;;;;6248561;28;20057;-79
2022/09/06 06:47:29;;;;;;;7.43;4.32;;;22.10;99.90;;;;;;6248538;28;20045;-80
2022/09/06 06:50:32;;;;;;;10.90;4.30;;;22.40;99.90;;;;;;6185832;28;20084;-79
2022/09/06 06:53:35;;;;;;;11.52;3.20;;;22.70;99.90;;;;;;6259693;28;20045;-79
2022/09/06 06:56:39;;;;;;;6.43;3.88;;;23.00;99.90;;;;;;6268412;28;20418;-81
2022/09/06 06:59:41;;;;;;;6.10;3.10;;;23.30;99.90;;;;;;6268389;28;20049;-79
2022/09/06 07:02:43;;;;;;;7.55;2.55;;;23.50;99.90;;;;;;6273418;28;20045;-78
2022/09/06 07:05:46;;;;;;;5.82;3.25;;;23.80;99.90;;;;;;6274338;28;20049;-78
2022/09/06 07:08:48;;;;;;;12.52;3.03;;;24.60;99.90;;;;;;6273242;28;20056;-78
2022/09/06 07:11:51;;;;;;;3.97;2.60;;;25.80;99.70;;;;;;6273394;28;20063;-79
2022/09/06 07:14:53;;;;;;;5.55;3.17;;;26.30;96.90;;;;;;6272432;28;20037;-78
2022/09/06 07:17:55;;;;;;;12.13;2.95;;;26.40;96.30;;;;;;6272045;28;20103;-79
2022/09/06 07:20:58;;;;;;;7.85;2.47;;;26.60;95.50;;;;;;6252688;28;20132;-79
2022/09/06 07:24:00;;;;;;;5.55;2.85;;;26.50;94.80;;;;;;6265512;28;20041;-79
2022/09/06 07:27:01;;;;;;;3.92;2.80;;;26.60;95.20;;;;;;6273017;28;20041;-80
2022/09/06 07:30:03;;;;;;;7.78;2.85;;;27.30;93.90;;;;;;6272419;28;20045;-79
2022/09/06 07:33:05;;;;;;;6.88;3.03;;;27.40;92.70;;;;;;6273369;28;20052;-79
2022/09/06 07:36:10;;;;;;;16.23;3.90;;;26.70;93.50;;;;;;6275402;28;20049;-79
2022/09/06 07:39:11;;;;;;;9.95;2.83;;;26.10;94.40;;;;;;6278052;28;20045;-80
2022/09/06 07:42:15;;;;;;;5.85;4.00;;;25.90;95.60;;;;;;6275968;28;20081;-79
2022/09/06 07:45:17;;;;;;;5.65;3.15;;;25.70;96.10;;;;;;6276012;28;20045;-80
2022/09/06 07:48:18;;;;;;;3.78;2.40;;;25.50;95.90;;;;;;6275380;28;20524;-80
2022/09/06 07:51:23;;;;;;;3.13;2.78;;;25.50;96.00;;;;;;6275293;28;20041;-79
2022/09/06 07:54:25;;;;;;;4.10;3.00;;;26.10;95.80;;;;;;6286791;22;20041;-81
2022/09/06 07:57:27;;;;;;;3.78;2.20;;;26.50;95.00;;;;;;6280004;28;20056;-82
2022/09/06 08:00:28;;;;;;;7.28;2.60;;;27.00;94.70;;;;;;6279765;28;20520;-81
2022/09/06 08:03:31;;;;;;;5.10;2.33;;;27.50;94.10;;;;;;6279954;28;20049;-80
2022/09/06 08:06:36;;;;;;;6.68;2.70;;;27.80;93.00;;;;;;6279684;28;20510;-80
2022/09/06 08:09:37;;;;;;;6.50;3.35;;;27.70;92.20;;;;;;6279567;28;20055;-80
2022/09/06 08:12:39;;;;;;;10.40;3.28;;;27.40;91.80;;;;;;6277576;28;20048;-80
2022/09/06 08:15:41;;;;;;;8.20;3.38;;;27.10;92.20;;;;;;6277548;28;20506;-80
2022/09/06 08:18:43;;;;;;;6.15;2.60;;;27.10;92.60;;;;;;6274923;28;20128;-81
2022/09/06 08:21:46;;;;;;;8.27;2.78;;;27.40;91.70;;;;;;6277122;28;20045;-81
2022/09/06 08:24:47;;;;;;;9.07;2.88;;;27.70;91.00;;;;;;6275914;28;20055;-81
2022/09/06 08:27:49;;;;;;;9.00;3.20;;;27.70;90.60;;;;;;6276431;28;20045;-81
2022/09/06 08:30:51;;;;;;;4.20;2.72;;;27.50;90.70;;;;;;6280776;28;20051;-81
2022/09/06 08:33:54;;;;;;;4.90;2.30;;;27.30;90.90;;;;;;6278484;28;20045;-81
2022/09/06 08:36:57;;;;;;;4.97;2.70;;;27.00;91.40;;;;;;6277248;28;20045;-81
2022/09/06 08:39:58;;;;;;;4.68;2.83;;;26.90;91.70;;;;;;6277594;28;20052;-81
2022/09/06 08:43:01;;;;;;;5.82;3.22;;;26.90;92.00;;;;;;6276656;28;20041;-81
2022/09/06 08:46:04;;;;;;;5.75;2.78;;;26.70;91.70;;;;;;6278318;28;20049;-81
2022/09/06 08:49:07;;;;;;;7.80;3.15;;;27.00;92.20;;;;;;6277438;28;20052;-82
2022/09/06 08:52:37;;;;;;;11.75;5.10;;;27.30;92.00;;;;;;6276247;28;20061;-82
2022/09/06 08:55:44;;;;;;;5.85;2.55;;;27.80;90.90;;;;;;6275379;28;20048;-82
2022/09/06 08:59:02;;;;;;;12.18;2.80;;;28.10;89.80;;;;;;6293203;28;20055;-83
2022/09/06 09:02:10;;;;;;;7.40;2.28;;;28.50;86.20;;;;;;6300697;28;20052;-82
2022/09/06 09:05:23;;;;;;;5.75;2.30;;;28.60;83.70;;;;;;6301270;28;20047;-84
2022/09/06 09:08:31;;;;;;;5.28;2.08;;;28.80;82.80;;;;;;6276177;28;20045;-83
2022/09/06 09:11:34;;;;;;;4.53;2.13;;;29.00;82.10;;;;;;6277160;28;20052;-83
2022/09/06 09:14:42;;;;;;;3.17;1.67;;;29.00;81.80;;;;;;6280072;28;20124;-83
2022/09/06 09:17:45;;;;;;;6.18;2.25;;;29.10;81.70;;;;;;6283090;28;20446;-84
2022/09/06 09:20:47;;;;;;;8.23;2.67;;;29.20;79.20;;;;;;6280324;28;20422;-85
2022/09/06 09:23:53;;;;;;;8.40;2.45;;;29.20;78.20;;;;;;6281102;28;20041;-83
2022/09/06 09:26:59;;;;;;;8.32;2.72;;;29.10;79.10;;;;;;6281635;28;20055;-83
2022/09/06 09:30:03;;;;;;;6.70;2.50;;;29.20;78.30;;;;;;6280791;28;20041;-82
2022/09/06 09:33:21;;;;;;;8.88;2.28;;;29.40;77.20;;;;;;6281889;28;20044;-83
2022/09/06 09:36:23;;;;;;;4.28;2.30;;;29.60;75.60;;;;;;6279584;28;20053;-81
2022/09/06 09:39:35;;;;;;;6.07;2.20;;;29.90;74.80;;;;;;6281356;28;20045;-82
2022/09/06 09:42:38;;;;;;;6.90;1.70;;;30.50;73.30;;;;;;6283014;28;20411;-83
2022/09/06 09:45:39;;;;;;;4.07;2.17;;;31.50;70.50;;;;;;6282845;28;20045;-82
2022/09/06 09:48:44;;;;;;;4.68;1.70;;;32.20;67.30;;;;;;6280912;28;20048;-82
2022/09/06 09:52:03;;;;;;;9.35;3.05;;;32.10;66.00;;;;;;6281529;28;20041;-82
2022/09/06 09:55:10;;;;;;;3.58;1.95;;;31.70;67.10;;;;;;6273977;28;20060;-82
2022/09/06 09:58:24;;;;;;;8.67;2.63;;;31.20;68.40;;;;;;6282014;28;20045;-82
2022/09/06 10:01:29;;;;;;;8.07;1.95;;;31.00;69.40;;;;;;6281139;28;20076;-84
2022/09/06 10:04:35;;;;;;;8.15;2.20;;;30.80;69.10;;;;;;6282076;28;20425;-83
2022/09/06 10:07:44;;;;;;;17.00;3.03;;;30.70;70.60;;;;;;6277747;28;20049;-82
2022/09/06 10:10:48;;;;;;;11.45;2.63;;;30.70;70.50;;;;;;6282367;28;20053;-83
2022/09/06 10:14:09;;;;;;;8.63;2.58;;;30.70;70.80;;;;;;6280213;28;20048;-82
2022/09/06 10:17:19;;;;;;;8.32;2.22;;;30.70;71.00;;;;;;6282758;28;20048;-83
2022/09/06 10:20:24;;;;;;;8.60;2.30;;;30.80;71.20;;;;;;6282774;28;20052;-83
2022/09/06 10:23:32;;;;;;;10.18;2.45;;;30.90;70.50;;;;;;6282894;28;20053;-83
2022/09/06 10:26:43;;;;;;;4.82;1.77;;;30.60;70.70;;;;;;6281773;28;20052;-85
2022/09/06 10:29:54;;;;;;;5.93;1.90;;;30.20;71.70;;;;;;6281969;28;20053;-84
2022/09/06 10:33:04;;;;;;;7.47;2.13;;;30.20;72.40;;;;;;6281549;28;20083;-85
2022/09/06 10:36:07;;;;;;;11.40;2.40;;;30.50;71.30;;;;;;6281336;28;20059;-83
2022/09/06 10:39:32;;;;;;;10.13;1.60;;;30.70;69.70;;;;;;6281055;28;20053;-84
2022/09/06 10:42:42;;;;;;;10.98;2.25;;;31.00;69.30;;;;;;6279978;28;20049;-82
2022/09/06 10:45:48;;;;;;;10.23;2.35;;;31.20;68.90;;;;;;6280952;28;20049;-83
2022/09/06 10:48:52;;;;;;;6.18;1.83;;;31.50;67.30;;;;;;6281861;28;20056;-84
2022/09/06 10:51:57;;;;;;;6.68;1.67;;;31.70;66.40;;;;;;6279756;28;20132;-82
2022/09/06 10:55:03;;;;;;;12.45;1.75;;;31.80;65.60;;;;;;6280937;28;20049;-82
2022/09/06 10:58:11;;;;;;;7.25;1.67;;;31.80;65.80;;;;;;6280591;28;20053;-82
2022/09/06 11:01:23;;;;;;;7.03;2.63;;;32.20;65.30;;;;;;6282200;28;20049;-82
2022/09/06 11:04:31;;;;;;;11.07;1.88;;;32.70;63.90;;;;;;6280626;28;20052;-82
2022/09/06 11:07:36;;;;;;;11.80;1.75;;;32.90;61.60;;;;;;6254205;28;20056;-83
2022/09/06 11:10:44;;;;;;;4.70;1.35;;;32.90;62.40;;;;;;6247172;28;20044;-83
2022/09/06 11:13:47;;;;;;;;;;;33.30;60.40;;;;;;6260075;28;20065;-83
2022/09/06 11:16:53;;;;;;;3.88;1.50;;;33.70;59.70;;;;;;6303476;28;19924;-83
2022/09/06 11:20:02;;;;;;;3.60;1.17;;;33.90;58.40;;;;;;6305399;28;20182;-83
2022/09/06 11:23:32;;;;;;;8.55;1.10;;;34.20;56.60;;;;;;6301525;28;20615;-82
2022/09/06 11:26:36;;;;;;;10.73;1.00;;;34.40;56.00;;;;;;6302960;28;20051;-82
2022/09/06 11:29:43;;;;;;;10.77;1.65;;;34.70;55.10;;;;;;6303762;28;20052;-81
2022/09/06 11:32:49;;;;;;;7.85;1.38;;;34.90;53.90;;;;;;6303799;28;20056;-82
2022/09/06 11:35:51;;;;;;;6.60;1.23;;;35.10;53.00;;;;;;6305748;28;20047;-81
2022/09/06 11:38:55;;;;;;;11.07;1.52;;;35.20;52.80;;;;;;6304427;28;20827;-81
2022/09/06 11:41:57;;;;;;;6.22;1.50;;;35.40;51.60;;;;;;6305018;28;20040;-82
2022/09/06 11:45:20;;;;;;;7.65;0.90;;;35.30;51.20;;;;;;6306196;28;20048;-82
2022/09/06 11:48:59;;;;;;;6.93;1.05;;;35.20;50.90;;;;;;6309269;28;20044;-81
2022/09/06 11:52:02;;;;;;;9.15;1.20;;;35.00;51.40;;;;;;6296948;28;20046;-82
2022/09/06 11:55:08;;;;;;;8.32;1.45;;;35.00;52.10;;;;;;6301600;28;20117;-81
2022/09/06 11:58:21;;;;;;;9.87;2.47;;;35.40;51.30;;;;;;6301036;28;20056;-82
2022/09/06 12:01:36;;;;;;;9.88;1.50;;;35.80;49.30;;;;;;6302682;28;20306;-82
2022/09/06 12:05:16;;;;;;;15.52;2.17;;;36.00;48.70;;;;;;6302606;28;20409;-82
2022/09/06 12:08:32;;;;;;;12.15;2.17;;;36.40;49.70;;;;;;6199486;28;20518;-82
2022/09/06 12:11:37;;;;;;;7.65;1.38;;;36.70;48.40;;;;;;6202553;28;20060;-82
2022/09/06 12:14:41;;;;;;;2.83;0.73;;;36.90;47.40;;;;;;6301867;28;20094;-82
2022/09/06 12:17:48;;;;;;;6.40;1.13;;;37.10;46.10;;;;;;6301183;28;20072;-82
2022/09/06 12:21:02;;;;;;;3.95;1.05;;;37.30;46.00;;;;;;6301916;28;20051;-82
2022/09/06 12:24:05;;;;;;;7.07;0.85;;;37.50;45.10;;;;;;6302059;28;20066;-82
2022/09/06 12:27:12;;;;;;;7.53;1.10;;;37.40;45.40;;;;;;6302201;28;20052;-82
2022/09/06 12:30:31;;;;;;;9.63;1.23;;;37.30;45.50;;;;;;6301280;28;20051;-78
2022/09/06 12:33:37;;;;;;;7.13;1.08;;;37.10;45.00;;;;;;6301160;28;20087;-78
2022/09/06 12:36:55;;;;;;;7.45;0.95;;;36.90;45.50;;;;;;6300784;28;20055;-79
2022/09/06 12:39:57;;;;;;;;;;;36.50;46.30;;;;;;6303834;28;20044;-80
2022/09/06 12:42:59;;;;;;;6.20;1.08;;;36.50;46.10;;;;;;6303735;28;19974;-80
2022/09/06 12:46:01;;;;;;;11.60;1.20;;;36.50;45.40;;;;;;6303990;28;20055;-79
2022/09/06 12:49:07;;;;;;;6.05;1.13;;;36.70;45.80;;;;;;6303102;28;20060;-80
2022/09/06 12:52:11;;;;;;;3.25;0.80;;;37.00;45.30;;;;;;6304505;28;20469;-80
2022/09/06 12:55:23;;;;;;;5.38;0.93;;;37.20;44.00;;;;;;6304679;28;20051;-80
2022/09/06 12:58:28;;;;;;;3.25;0.57;;;37.10;43.60;;;;;;6303958;28;20063;-80
2022/09/06 13:01:33;;;;;;;6.28;1.00;;;37.40;44.00;;;;;;6304617;28;20415;-80
2022/09/06 13:04:42;;;;;;;9.20;1.67;;;37.70;44.00;;;;;;6303958;28;20044;-80
2022/09/06 13:07:49;;;;;;;12.18;1.45;;;37.90;43.90;;;;;;6303738;28;20407;-80
2022/09/06 13:10:51;;;;;;;7.05;1.08;;;38.00;43.80;;;;;;6303695;28;20052;-80
2022/09/06 13:13:54;;;;;;;10.73;1.52;;;38.20;43.50;;;;;;6304315;28;20071;-80
2022/09/06 13:16:56;;;;;;;3.30;0.73;;;38.30;41.80;;;;;;6302045;28;20414;-80
2022/09/06 13:20:11;;;;;;;4.40;0.80;;;38.30;41.70;;;;;;6288696;28;20044;-79
2022/09/06 13:23:19;;;;;;;4.95;1.08;;;38.30;41.20;;;;;;6294143;28;20052;-80
2022/09/06 13:26:35;;;;;;;7.50;0.65;;;38.40;40.70;;;;;;6298257;28;20062;-80
2022/09/06 13:29:37;;;;;;;5.53;1.02;;;38.30;39.80;;;;;;6313343;28;20056;-79
2022/09/06 13:32:47;;;;;;;6.32;0.77;;;37.80;40.70;;;;;;6286591;28;20056;-80
2022/09/06 13:36:07;;;;;;;8.15;0.90;;;37.70;41.40;;;;;;6272256;28;20041;-80
2022/09/06 13:39:11;;;;;;;4.55;0.70;;;37.70;42.00;;;;;;6276187;28;20137;-79
2022/09/06 13:42:25;;;;;;;3.33;0.70;;;37.40;41.70;;;;;;6297790;28;20608;-79
2022/09/06 13:45:28;;;;;;;6.57;0.85;;;37.20;42.10;;;;;;6298833;28;20513;-79
2022/09/06 13:48:30;;;;;;;5.97;0.82;;;37.00;43.00;;;;;;6297335;28;20052;-79
2022/09/06 13:51:34;;;;;;;4.28;0.68;;;36.80;42.40;;;;;;6296695;28;20040;-79
2022/09/06 13:54:36;;;;;;;4.78;0.80;;;36.60;42.30;;;;;;6295673;28;20517;-79
2022/09/06 13:57:38;;;;;;;8.85;1.02;;;36.70;42.90;;;;;;6280406;28;20041;-79
2022/09/06 14:00:40;;;;;;;4.70;0.50;;;37.00;42.10;;;;;;6274104;28;20059;-79
2022/09/06 14:03:42;;;;;;;4.82;0.85;;;37.30;41.20;;;;;;6276112;28;20041;-79
2022/09/06 14:06:46;;;;;;;2.33;0.90;;;37.50;40.90;;;;;;6275603;28;20076;-79
2022/09/06 14:09:49;;;;;;;6.47;1.02;;;37.70;40.70;;;;;;6275075;28;20063;-78
2022/09/06 14:12:53;;;;;;;2.97;0.50;;;38.00;40.70;;;;;;6277779;28;20517;-79
2022/09/06 14:15:55;;;;;;;6.00;0.88;;;38.20;40.10;;;;;;6278570;28;20075;-79
2022/09/06 14:18:57;;;;;;;4.72;0.73;;;38.30;39.40;;;;;;6276440;28;20044;-79
2022/09/06 14:22:00;;;;;;;1.35;0.40;;;38.40;39.30;;;;;;6297438;28;20083;-79
2022/09/06 14:25:02;;;;;;;5.25;1.13;;;38.50;39.20;;;;;;6298880;28;20067;-79
2022/09/06 14:28:04;;;;;;;6.07;0.63;;;38.40;39.00;;;;;;6300339;28;20568;-79
2022/09/06 14:31:11;;;;;;;5.63;1.30;;;38.20;39.10;;;;;;6300093;28;20044;-79
2022/09/06 14:34:12;;;;;;;7.28;0.70;;;38.20;39.30;;;;;;6299975;28;20048;-79
2022/09/06 14:37:16;;;;;;;3.65;0.65;;;38.20;38.10;;;;;;6301282;28;20051;-79
2022/09/06 14:40:17;;;;;;;4.30;0.50;;;38.20;37.80;;;;;;6301255;28;20476;-79
2022/09/06 14:43:19;;;;;;;4.10;0.60;;;38.40;37.80;;;;;;6303896;28;20581;-78
2022/09/06 14:46:23;;;;;;;4.65;0.88;;;38.40;38.30;;;;;;6305020;28;20649;-80
2022/09/06 14:49:25;;;;;;;4.97;1.15;;;38.40;38.40;;;;;;6293475;28;20132;-80
2022/09/06 14:52:28;;;;;;;1.83;0.57;;;38.60;38.50;;;;;;6302407;28;20573;-81
2022/09/06 14:55:30;;;;;;;2.03;0.52;;;38.80;38.00;;;;;;6303226;28;20590;-80
2022/09/06 14:58:32;;;;;;;4.68;0.60;;;38.90;38.10;;;;;;6303528;28;20528;-80
2022/09/06 15:01:34;;;;;;;3.95;0.80;;;38.90;37.10;;;;;;6303480;28;20185;-80
2022/09/06 15:04:36;;;;;;;4.78;0.50;;;38.90;36.80;;;;;;6301804;28;20044;-80
2022/09/06 15:07:39;;;;;;;8.10;1.23;;;38.80;35.90;;;;;;6300987;28;20048;-80
2022/09/06 15:10:41;;;;;;;5.90;0.30;;;38.50;35.90;;;;;;6299958;28;20044;-79
2022/09/06 15:13:43;;;;;;;4.30;0.50;;;38.30;36.20;;;;;;6299548;28;20102;-80
2022/09/06 15:16:45;;;;;;;4.20;0.77;;;38.20;36.50;;;;;;6304699;28;20044;-80
2022/09/06 15:19:47;;;;;;;7.78;2.22;;;38.00;36.20;;;;;;6301321;28;20135;-81
2022/09/06 15:22:50;;;;;;;3.90;0.50;;;37.80;36.20;;;;;;6300615;28;20056;-80
2022/09/06 15:25:53;;;;;;;2.95;0.70;;;37.50;36.60;;;;;;6278219;28;20051;-80
2022/09/06 15:28:54;;;;;;;2.65;0.52;;;37.10;37.30;;;;;;6284179;28;20052;-80
2022/09/06 15:31:56;;;;;;;9.13;0.70;;;36.40;38.20;;;;;;6277458;28;20062;-80
2022/09/06 15:34:58;;;;;;;15.45;1.25;;;35.90;38.50;;;;;;6298757;28;20052;-80
2022/09/06 15:38:02;;;;;;;4.50;0.98;;;35.40;39.00;;;;;;6297383;28;20044;-80
2022/09/06 15:41:06;;;;;;;2.92;0.50;;;35.10;39.60;;;;;;6274325;28;20057;-80
2022/09/06 15:44:10;;;;;;;3.28;0.93;;;34.90;40.20;;;;;;6272225;28;20056;-80
2022/09/06 15:47:12;;;;;;;1.70;0.50;;;34.70;40.80;;;;;;6273571;28;20517;-80
2022/09/06 15:50:14;;;;;;;3.25;0.68;;;34.50;40.90;;;;;;6297512;28;20048;-79
2022/09/06 15:53:17;;;;;;;2.25;0.60;;;34.10;40.60;;;;;;6297369;28;20049;-80
2022/09/06 15:56:19;;;;;;;4.07;0.80;;;33.90;40.80;;;;;;6296957;28;20043;-79
2022/09/06 15:59:21;;;;;;;1.73;0.65;;;33.60;41.60;;;;;;6296483;28;20101;-79
2022/09/06 16:02:23;;;;;;;2.85;0.68;;;33.30;41.80;;;;;;6296249;28;20041;-79